Time;durP1;ratioP1;P1;durP2;ratioP2;P2;SDS_P1;SDS_P2;PMS_P1;PMS_P2;Temp;Humidity;BMP_temperature;BMP_pressure;BME280_temperature;BME280_humidity;BME280_pressure;Samples;Min_cycle;Max_cycle;Signal;HPM_P1;HPM_P2
2022/09/29 00:00:42;;;;;;;0.70;0.70;;;9.60;99.90;;;;;;5035455;28;20201;-67
2022/09/29 00:03:11;;;;;;;0.77;0.77;;;9.60;99.90;;;;;;5030755;28;20205;-67
2022/09/29 00:05:37;;;;;;;1.00;1.00;;;9.70;99.90;;;;;;5029201;28;20238;-66
2022/09/29 00:08:04;;;;;;;0.83;0.83;;;9.70;99.90;;;;;;5026313;28;20205;-65
2022/09/29 00:10:31;;;;;;;1.07;1.00;;;9.60;99.90;;;;;;5026228;28;20205;-66
2022/09/29 00:12:58;;;;;;;1.23;0.90;;;9.60;99.90;;;;;;5027040;28;20288;-65
2022/09/29 00:15:25;;;;;;;0.70;0.70;;;9.60;99.90;;;;;;5026020;28;20224;-66
2022/09/29 00:17:51;;;;;;;0.70;0.70;;;9.60;99.90;;;;;;5026500;28;20201;-67
2022/09/29 00:20:20;;;;;;;0.57;0.57;;;9.60;99.90;;;;;;5023551;28;20264;-65
2022/09/29 00:22:50;;;;;;;0.80;0.80;;;9.60;99.90;;;;;;5026003;28;20197;-66
2022/09/29 00:25:17;;;;;;;0.60;0.60;;;9.60;99.90;;;;;;5025021;28;20217;-66
2022/09/29 00:27:44;;;;;;;0.80;0.80;;;9.60;99.90;;;;;;5026105;28;20205;-67
2022/09/29 00:30:11;;;;;;;0.70;0.70;;;9.60;99.90;;;;;;5025090;28;20222;-65
2022/09/29 00:32:38;;;;;;;0.97;0.97;;;9.60;99.90;;;;;;5029451;28;20217;-66
2022/09/29 00:35:06;;;;;;;0.77;0.77;;;9.70;99.90;;;;;;5027158;28;20254;-66
2022/09/29 00:37:34;;;;;;;0.70;0.70;;;9.70;99.90;;;;;;5025665;28;20209;-67
2022/09/29 00:40:01;;;;;;;0.70;0.70;;;9.70;99.90;;;;;;5024528;28;20677;-66
2022/09/29 00:42:30;;;;;;;0.50;0.50;;;9.70;99.90;;;;;;5023394;28;20221;-66
2022/09/29 00:45:23;;;;;;;0.70;0.70;;;9.70;99.90;;;;;;5022262;28;20773;-65
2022/09/29 00:48:01;;;;;;;0.70;0.70;;;9.60;99.90;;;;;;5013914;28;20205;-66
2022/09/29 00:50:39;;;;;;;0.80;0.80;;;9.70;99.90;;;;;;5012841;28;20200;-66
2022/09/29 00:53:11;;;;;;;0.70;0.70;;;9.70;99.90;;;;;;5015943;28;20217;-67
2022/09/29 00:55:43;;;;;;;1.17;0.60;;;9.80;99.90;;;;;;5025448;28;20589;-67
2022/09/29 00:58:15;;;;;;;0.70;0.70;;;9.80;99.90;;;;;;5024518;28;20205;-66
2022/09/29 01:00:42;;;;;;;0.40;0.40;;;9.80;99.90;;;;;;5029886;28;20207;-67
2022/09/29 01:03:13;;;;;;;0.67;0.67;;;9.90;99.90;;;;;;5026403;28;20231;-66
2022/09/29 01:05:44;;;;;;;0.60;0.60;;;10.00;99.90;;;;;;5029272;28;20605;-66
2022/09/29 01:08:30;;;;;;;0.70;0.70;;;9.90;99.90;;;;;;5029834;28;20288;-66
2022/09/29 01:10:57;;;;;;;0.80;0.80;;;9.90;99.90;;;;;;5008601;28;20775;-66
2022/09/29 01:13:25;;;;;;;0.70;0.70;;;9.90;99.90;;;;;;5008901;28;20221;-66
2022/09/29 01:15:52;;;;;;;0.80;0.80;;;9.80;99.90;;;;;;5010584;28;20314;-66
2022/09/29 01:18:19;;;;;;;0.50;0.50;;;9.90;99.90;;;;;;5009125;28;20212;-67
2022/09/29 01:20:56;;;;;;;0.77;0.70;;;9.90;99.90;;;;;;5014302;28;20221;-65
2022/09/29 01:23:54;;;;;;;0.57;0.57;;;9.90;99.90;;;;;;5004984;28;21905;-65
2022/09/29 01:27:00;;;;;;;0.60;0.60;;;9.90;99.90;;;;;;4993100;28;20212;-65
2022/09/29 01:29:59;;;;;;;0.77;0.77;;;9.90;99.90;;;;;;4985163;28;20209;-67
2022/09/29 01:32:40;;;;;;;0.80;0.80;;;9.90;99.90;;;;;;4993172;28;20207;-66
2022/09/29 01:35:13;;;;;;;0.67;0.67;;;9.90;99.90;;;;;;5000818;28;20228;-67
2022/09/29 01:37:51;;;;;;;0.70;0.70;;;9.80;99.90;;;;;;5003488;28;20684;-66
2022/09/29 01:40:24;;;;;;;0.70;0.70;;;9.90;99.90;;;;;;4999320;28;20202;-67
2022/09/29 01:42:58;;;;;;;0.70;0.70;;;9.90;99.90;;;;;;5018611;28;20553;-67
2022/09/29 01:45:29;;;;;;;0.80;0.80;;;9.80;99.90;;;;;;5010226;28;20653;-66
2022/09/29 01:48:04;;;;;;;0.80;0.80;;;9.90;99.90;;;;;;5022302;28;20209;-66
2022/09/29 01:50:36;;;;;;;0.60;0.60;;;9.90;99.90;;;;;;5024339;28;20211;-66
2022/09/29 01:53:08;;;;;;;0.67;0.67;;;9.80;99.90;;;;;;5022884;28;20228;-67
2022/09/29 01:55:42;;;;;;;0.57;0.57;;;9.80;99.90;;;;;;5024295;28;20221;-65
2022/09/29 01:58:13;;;;;;;0.53;0.53;;;9.80;99.90;;;;;;5023277;28;20216;-65
2022/09/29 02:00:46;;;;;;;0.70;0.70;;;9.80;99.90;;;;;;5024115;28;20565;-65
2022/09/29 02:03:18;;;;;;;0.73;0.73;;;9.70;99.90;;;;;;5021981;28;20670;-66
2022/09/29 02:05:48;;;;;;;0.73;0.73;;;9.70;99.90;;;;;;5028980;28;20228;-66
2022/09/29 02:08:19;;;;;;;0.60;0.60;;;9.70;99.90;;;;;;5031329;28;20208;-67
2022/09/29 02:10:52;;;;;;;0.70;0.70;;;9.70;99.90;;;;;;5032185;28;20207;-66
2022/09/29 02:13:21;;;;;;;0.70;0.50;;;9.70;99.90;;;;;;5032689;28;20211;-66
2022/09/29 02:15:50;;;;;;;0.70;0.50;;;9.80;99.90;;;;;;5031615;28;20220;-66
2022/09/29 02:18:22;;;;;;;0.60;0.60;;;9.70;99.90;;;;;;5021873;28;20216;-65
2022/09/29 02:20:50;;;;;;;0.70;0.70;;;9.80;99.90;;;;;;5020330;28;20219;-66
2022/09/29 02:23:18;;;;;;;0.80;0.80;;;9.70;99.90;;;;;;5026328;28;20710;-65
2022/09/29 02:25:48;;;;;;;0.50;0.50;;;9.70;99.90;;;;;;5019453;28;20235;-65
2022/09/29 02:28:16;;;;;;;0.70;0.70;;;9.70;99.90;;;;;;5025426;28;20789;-65
2022/09/29 02:30:44;;;;;;;0.67;0.67;;;9.70;99.90;;;;;;5026800;28;20205;-66
2022/09/29 02:33:21;;;;;;;1.20;0.83;;;9.70;99.90;;;;;;5025385;28;20232;-67
2022/09/29 02:35:59;;;;;;;0.50;0.50;;;9.70;99.90;;;;;;5027854;28;20284;-66
2022/09/29 02:38:35;;;;;;;0.40;0.40;;;9.80;99.90;;;;;;5024203;28;20200;-67
2022/09/29 02:41:07;;;;;;;0.80;0.80;;;9.70;99.90;;;;;;5021030;28;20691;-65
2022/09/29 02:43:47;;;;;;;0.57;0.57;;;9.70;99.90;;;;;;5025480;28;20193;-66
2022/09/29 02:46:30;;;;;;;0.63;0.63;;;9.70;99.90;;;;;;5021956;28;20585;-66
2022/09/29 02:49:18;;;;;;;0.70;0.70;;;9.70;99.90;;;;;;5022712;28;20693;-66
2022/09/29 02:51:48;;;;;;;0.60;0.60;;;9.70;99.90;;;;;;5022587;28;20197;-64
2022/09/29 02:54:35;;;;;;;0.70;0.70;;;9.70;99.90;;;;;;5024499;28;20254;-66
2022/09/29 02:57:10;;;;;;;0.73;0.63;;;9.70;99.90;;;;;;5030748;28;20208;-67
2022/09/29 02:59:45;;;;;;;0.87;0.87;;;9.80;99.90;;;;;;5022068;28;20211;-65
2022/09/29 03:02:15;;;;;;;0.57;0.57;;;9.80;99.90;;;;;;5024229;28;20201;-67
2022/09/29 03:04:43;;;;;;;0.50;0.50;;;9.80;99.90;;;;;;5024401;28;20287;-66
2022/09/29 03:07:10;;;;;;;0.47;0.47;;;9.80;99.90;;;;;;5023780;28;20227;-67
2022/09/29 03:09:36;;;;;;;0.70;0.70;;;9.80;99.90;;;;;;5029613;28;20204;-65
2022/09/29 03:12:03;;;;;;;0.70;0.70;;;9.80;99.90;;;;;;5021924;28;20209;-67
2022/09/29 03:14:30;;;;;;;0.70;0.70;;;9.80;99.90;;;;;;5026420;28;20316;-67
2022/09/29 03:16:57;;;;;;;0.60;0.60;;;9.80;99.90;;;;;;5020998;28;20297;-66
2022/09/29 03:19:24;;;;;;;0.97;0.80;;;9.90;99.90;;;;;;5023617;28;20288;-65
2022/09/29 03:21:52;;;;;;;0.70;0.70;;;9.80;99.90;;;;;;5022051;28;20205;-66
2022/09/29 03:24:19;;;;;;;0.60;0.60;;;9.80;99.90;;;;;;5019900;28;20231;-66
2022/09/29 03:26:46;;;;;;;0.80;0.80;;;9.80;99.90;;;;;;5020588;28;20206;-66
2022/09/29 03:29:13;;;;;;;0.80;0.80;;;9.80;99.90;;;;;;5021917;28;20213;-66
2022/09/29 03:31:40;;;;;;;0.70;0.70;;;9.80;99.90;;;;;;5025758;28;20198;-65
2022/09/29 03:34:06;;;;;;;0.60;0.60;;;9.80;99.90;;;;;;5023475;28;20221;-65
2022/09/29 03:36:33;;;;;;;0.60;0.60;;;9.80;99.90;;;;;;5023712;28;20197;-66
2022/09/29 03:39:01;;;;;;;0.70;0.70;;;9.70;99.90;;;;;;5023107;28;20232;-66
2022/09/29 03:41:28;;;;;;;0.90;0.70;;;9.60;99.90;;;;;;5029480;28;20201;-66
2022/09/29 03:43:55;;;;;;;0.60;0.60;;;9.50;99.90;;;;;;5034778;28;20284;-66
2022/09/29 03:46:22;;;;;;;0.70;0.70;;;9.60;99.90;;;;;;5026224;28;20204;-66
2022/09/29 03:48:48;;;;;;;0.90;0.90;;;9.50;99.90;;;;;;5029739;28;20207;-65
2022/09/29 03:51:15;;;;;;;0.60;0.60;;;9.50;99.90;;;;;;5024373;28;20686;-65
2022/09/29 03:53:42;;;;;;;0.60;0.60;;;9.50;99.90;;;;;;5026330;28;20228;-66
2022/09/29 03:56:10;;;;;;;0.90;0.90;;;9.40;99.90;;;;;;5027612;28;20228;-66
2022/09/29 03:58:37;;;;;;;0.60;0.60;;;9.40;99.90;;;;;;5026257;28;20219;-67
2022/09/29 04:01:04;;;;;;;0.70;0.70;;;9.40;99.90;;;;;;5024937;28;20659;-66
2022/09/29 04:03:30;;;;;;;0.80;0.80;;;9.40;99.90;;;;;;5025697;28;20192;-67
2022/09/29 04:05:57;;;;;;;0.70;0.70;;;9.40;99.90;;;;;;5026531;28;20286;-66
2022/09/29 04:08:24;;;;;;;0.90;0.90;;;9.40;99.90;;;;;;5025607;28;20200;-67
2022/09/29 04:10:51;;;;;;;0.70;0.70;;;9.40;99.90;;;;;;5026460;28;20630;-66
2022/09/29 04:13:20;;;;;;;0.60;0.60;;;9.40;99.90;;;;;;5025076;28;20200;-67
2022/09/29 04:15:47;;;;;;;0.50;0.50;;;9.50;99.90;;;;;;5026800;28;20232;-65
2022/09/29 04:18:14;;;;;;;1.17;0.50;;;9.50;99.90;;;;;;5023946;28;20205;-65
2022/09/29 04:20:41;;;;;;;0.60;0.60;;;9.60;99.90;;;;;;5026372;28;20197;-65
2022/09/29 04:23:08;;;;;;;0.60;0.60;;;9.60;99.90;;;;;;5024709;28;20231;-66
2022/09/29 04:25:35;;;;;;;0.70;0.70;;;9.60;99.90;;;;;;5026540;28;20216;-66
2022/09/29 04:28:01;;;;;;;0.50;0.50;;;9.60;99.90;;;;;;5024852;28;20300;-67
2022/09/29 04:30:30;;;;;;;0.70;0.70;;;9.60;99.90;;;;;;5026366;28;20212;-65
2022/09/29 04:32:56;;;;;;;0.67;0.67;;;9.60;99.90;;;;;;5026329;28;20201;-65
2022/09/29 04:35:23;;;;;;;1.00;0.90;;;9.60;99.90;;;;;;5026797;28;20236;-65
2022/09/29 04:37:54;;;;;;;0.97;0.70;;;9.60;99.90;;;;;;5032751;28;20211;-68
2022/09/29 04:40:21;;;;;;;0.70;0.70;;;9.60;99.90;;;;;;5021650;28;20206;-67
2022/09/29 04:42:48;;;;;;;0.70;0.70;;;9.70;99.90;;;;;;5023324;28;20201;-66
2022/09/29 04:45:15;;;;;;;0.73;0.73;;;9.50;99.90;;;;;;5024554;28;20217;-66
2022/09/29 04:47:43;;;;;;;0.70;0.70;;;9.50;99.90;;;;;;5025466;28;20211;-67
2022/09/29 04:50:10;;;;;;;0.60;0.60;;;9.50;99.90;;;;;;5022618;28;20217;-65
2022/09/29 04:52:37;;;;;;;0.80;0.80;;;9.40;99.90;;;;;;5026813;28;20210;-66
2022/09/29 04:55:04;;;;;;;0.70;0.70;;;9.40;99.90;;;;;;5022870;28;20239;-67
2022/09/29 04:57:31;;;;;;;0.70;0.70;;;9.40;99.90;;;;;;5033116;28;20200;-67
2022/09/29 04:59:58;;;;;;;0.63;0.63;;;9.40;99.90;;;;;;5021386;28;20205;-67
2022/09/29 05:02:25;;;;;;;0.80;0.80;;;9.40;99.90;;;;;;5025823;28;20215;-66
2022/09/29 05:04:53;;;;;;;0.70;0.70;;;9.40;99.90;;;;;;5027288;28;20240;-66
2022/09/29 05:07:20;;;;;;;0.70;0.70;;;9.40;99.90;;;;;;5025096;28;20208;-67
2022/09/29 05:09:47;;;;;;;0.73;0.73;;;9.40;99.90;;;;;;5024953;28;20206;-67
2022/09/29 05:12:14;;;;;;;0.90;0.90;;;9.40;99.90;;;;;;5017771;28;20205;-67
2022/09/29 05:14:42;;;;;;;1.20;1.10;;;9.40;99.90;;;;;;5026851;28;20252;-68
2022/09/29 05:17:09;;;;;;;0.80;0.80;;;9.40;99.90;;;;;;5023351;28;20240;-65
2022/09/29 05:19:36;;;;;;;1.00;1.00;;;9.40;99.90;;;;;;5025330;28;20199;-67
2022/09/29 05:22:04;;;;;;;0.80;0.80;;;9.50;99.90;;;;;;5022609;28;20585;-68
2022/09/29 05:24:31;;;;;;;0.90;0.90;;;9.30;99.90;;;;;;5025217;28;20217;-67
2022/09/29 05:26:58;;;;;;;0.80;0.80;;;9.20;99.90;;;;;;5023602;28;20231;-67
2022/09/29 05:29:25;;;;;;;0.70;0.70;;;9.20;99.90;;;;;;5024842;28;20201;-67
2022/09/29 05:31:51;;;;;;;1.00;1.00;;;9.20;99.90;;;;;;5024872;28;20256;-68
2022/09/29 05:34:18;;;;;;;0.70;0.70;;;9.20;99.90;;;;;;5018574;28;20225;-68
2022/09/29 05:36:45;;;;;;;0.70;0.70;;;9.20;99.90;;;;;;5037221;28;20264;-67
2022/09/29 05:39:13;;;;;;;0.60;0.60;;;9.20;99.90;;;;;;5039405;28;20210;-68
2022/09/29 05:41:40;;;;;;;0.77;0.77;;;9.20;99.90;;;;;;5028102;28;20212;-67
2022/09/29 05:44:07;;;;;;;0.87;0.87;;;9.30;99.90;;;;;;5024504;28;20211;-66
2022/09/29 05:46:34;;;;;;;1.43;1.00;;;9.30;99.90;;;;;;5024047;28;20211;-68
2022/09/29 05:49:01;;;;;;;0.70;0.70;;;9.40;99.90;;;;;;5023543;28;20204;-67
2022/09/29 05:51:28;;;;;;;0.90;0.90;;;9.40;99.90;;;;;;5017090;28;20204;-68
2022/09/29 05:53:55;;;;;;;0.77;0.77;;;9.50;99.90;;;;;;5024289;28;20227;-67
2022/09/29 05:56:25;;;;;;;1.20;1.20;;;9.50;99.90;;;;;;5022877;28;20224;-67
2022/09/29 05:58:52;;;;;;;1.13;1.10;;;9.50;99.90;;;;;;5024985;28;20201;-67
2022/09/29 06:01:21;;;;;;;0.90;0.90;;;9.50;99.90;;;;;;5010514;28;20216;-66
2022/09/29 06:03:49;;;;;;;1.17;1.10;;;9.50;99.90;;;;;;5018219;28;20237;-66
2022/09/29 06:06:19;;;;;;;0.90;0.90;;;9.50;99.90;;;;;;5009057;28;21372;-68
2022/09/29 06:08:47;;;;;;;1.00;0.90;;;9.60;99.90;;;;;;5020934;28;20295;-68
2022/09/29 06:11:15;;;;;;;0.67;0.67;;;9.60;99.90;;;;;;5021639;28;20243;-67
2022/09/29 06:13:46;;;;;;;0.73;0.73;;;9.50;99.90;;;;;;5021138;28;20289;-65
2022/09/29 06:16:14;;;;;;;1.07;0.80;;;9.50;99.90;;;;;;5019111;28;20225;-65
2022/09/29 06:18:41;;;;;;;0.90;0.90;;;9.60;99.90;;;;;;5015710;28;20196;-66
2022/09/29 06:21:09;;;;;;;0.73;0.73;;;9.60;99.90;;;;;;5016410;28;20209;-67
2022/09/29 06:23:37;;;;;;;0.73;0.73;;;9.60;99.90;;;;;;5018773;28;20205;-67
2022/09/29 06:26:06;;;;;;;0.93;0.90;;;9.60;99.90;;;;;;5021695;28;20216;-67
2022/09/29 06:28:33;;;;;;;0.70;0.70;;;9.60;99.90;;;;;;5021016;28;20255;-65
2022/09/29 06:31:03;;;;;;;0.87;0.87;;;9.70;99.90;;;;;;5022835;28;20656;-65
2022/09/29 06:33:31;;;;;;;0.97;0.90;;;9.80;99.90;;;;;;5024272;28;20204;-66
2022/09/29 06:38:44;;;;;;;0.80;0.80;;;9.80;99.90;;;;;;5008114;28;20208;-66
2022/09/29 06:41:11;;;;;;;1.63;1.10;;;9.90;99.90;;;;;;5004305;28;20205;-65
2022/09/29 06:43:38;;;;;;;0.70;0.70;;;9.90;99.90;;;;;;5001908;28;20739;-66
2022/09/29 06:46:06;;;;;;;0.60;0.60;;;10.00;99.90;;;;;;5004164;28;20221;-65
2022/09/29 06:48:33;;;;;;;0.77;0.77;;;10.00;99.90;;;;;;5011472;28;20197;-66
2022/09/29 06:51:00;;;;;;;0.77;0.77;;;10.00;99.90;;;;;;5020203;28;20207;-65
2022/09/29 06:53:27;;;;;;;0.87;0.87;;;10.00;99.90;;;;;;5022779;28;20200;-65
2022/09/29 06:55:55;;;;;;;0.80;0.80;;;10.20;99.90;;;;;;5013299;28;20580;-66
2022/09/29 06:58:22;;;;;;;0.77;0.77;;;10.30;99.90;;;;;;5014289;28;20255;-65
2022/09/29 07:00:49;;;;;;;0.60;0.60;;;10.30;99.90;;;;;;5015016;28;20198;-67
2022/09/29 07:03:17;;;;;;;0.93;0.90;;;10.40;99.90;;;;;;5020548;28;20205;-66
2022/09/29 07:05:44;;;;;;;1.03;0.83;;;10.50;99.90;;;;;;5017696;28;20224;-65
2022/09/29 07:08:11;;;;;;;0.90;0.90;;;10.50;99.90;;;;;;5020907;28;20205;-67
2022/09/29 07:10:38;;;;;;;1.20;1.10;;;10.60;99.90;;;;;;5009941;28;20296;-66
2022/09/29 07:13:07;;;;;;;1.40;1.23;;;10.60;99.90;;;;;;5013866;28;20205;-66
2022/09/29 07:15:34;;;;;;;0.97;0.97;;;10.70;99.90;;;;;;5026466;28;20228;-65
2022/09/29 07:18:01;;;;;;;1.10;1.10;;;10.70;99.90;;;;;;5018788;28;20205;-65
2022/09/29 07:20:31;;;;;;;1.03;1.03;;;10.70;99.90;;;;;;5032365;28;20230;-66
2022/09/29 07:22:58;;;;;;;1.07;0.97;;;10.80;99.90;;;;;;5039122;28;20236;-66
2022/09/29 07:25:24;;;;;;;0.70;0.70;;;10.80;99.90;;;;;;5036505;28;20686;-66
2022/09/29 07:27:51;;;;;;;0.70;0.70;;;10.90;99.90;;;;;;5020815;28;20742;-65
2022/09/29 07:30:19;;;;;;;0.60;0.60;;;11.00;99.90;;;;;;5020192;28;20204;-66
2022/09/29 07:32:46;;;;;;;0.70;0.70;;;11.00;99.90;;;;;;5022990;28;20205;-66
2022/09/29 07:35:12;;;;;;;0.50;0.50;;;11.00;99.90;;;;;;5019830;28;20225;-67
2022/09/29 07:37:41;;;;;;;1.43;1.10;;;11.10;99.90;;;;;;5020910;28;20501;-66
2022/09/29 07:40:08;;;;;;;0.70;0.70;;;11.20;99.90;;;;;;5024012;28;20209;-67
2022/09/29 07:42:35;;;;;;;0.70;0.70;;;11.20;99.90;;;;;;5020142;28;20668;-66
2022/09/29 07:45:02;;;;;;;0.70;0.70;;;11.10;99.90;;;;;;5023845;28;20749;-67
2022/09/29 07:47:29;;;;;;;0.90;0.90;;;11.20;99.90;;;;;;5024465;28;20206;-66
2022/09/29 07:49:55;;;;;;;0.70;0.70;;;11.20;99.90;;;;;;5023668;28;20212;-67
2022/09/29 07:52:22;;;;;;;0.80;0.80;;;11.30;99.90;;;;;;5019368;28;20201;-66
2022/09/29 07:54:50;;;;;;;0.83;0.83;;;11.50;99.90;;;;;;5026466;28;20230;-67
2022/09/29 07:57:17;;;;;;;0.70;0.70;;;11.60;99.90;;;;;;5023195;28;20205;-66
2022/09/29 07:59:44;;;;;;;1.10;0.70;;;11.70;99.90;;;;;;5023522;28;20376;-66
2022/09/29 08:02:11;;;;;;;0.60;0.60;;;11.80;99.90;;;;;;5014995;28;20221;-67
2022/09/29 08:04:38;;;;;;;0.80;0.80;;;12.00;99.90;;;;;;5022760;28;20233;-66
2022/09/29 08:07:05;;;;;;;0.70;0.70;;;12.20;99.90;;;;;;5024065;28;20355;-67
2022/09/29 08:09:32;;;;;;;0.80;0.80;;;12.30;99.90;;;;;;5027886;28;20285;-67
2022/09/29 08:12:00;;;;;;;0.60;0.60;;;12.50;99.90;;;;;;5016923;28;20602;-66
2022/09/29 08:14:27;;;;;;;0.60;0.60;;;12.50;99.90;;;;;;5022637;28;20221;-66
2022/09/29 08:16:53;;;;;;;0.60;0.60;;;12.60;99.90;;;;;;5019794;28;20292;-67
2022/09/29 08:19:20;;;;;;;0.60;0.60;;;12.60;99.90;;;;;;5018648;28;20554;-66
2022/09/29 08:21:48;;;;;;;0.60;0.60;;;12.70;99.90;;;;;;5020747;28;20201;-65
2022/09/29 08:24:17;;;;;;;0.73;0.73;;;12.60;99.90;;;;;;5021570;28;20575;-65
2022/09/29 08:26:44;;;;;;;0.57;0.57;;;12.60;99.90;;;;;;5021467;28;20708;-67
2022/09/29 08:29:14;;;;;;;0.80;0.80;;;12.70;99.90;;;;;;5023765;28;20205;-66
2022/09/29 08:31:42;;;;;;;0.70;0.70;;;12.80;99.90;;;;;;5024031;28;20210;-66
2022/09/29 08:34:09;;;;;;;0.60;0.60;;;12.90;99.90;;;;;;5018003;28;20269;-66
2022/09/29 08:36:36;;;;;;;0.73;0.73;;;13.00;99.90;;;;;;5019948;28;20589;-66
2022/09/29 08:39:03;;;;;;;0.50;0.50;;;13.20;99.90;;;;;;5020413;28;20646;-66
2022/09/29 08:41:43;;;;;;;0.70;0.70;;;13.50;99.90;;;;;;5010034;28;20211;-67
2022/09/29 08:44:17;;;;;;;0.80;0.80;;;13.70;99.90;;;;;;5021340;28;20667;-67
2022/09/29 08:46:48;;;;;;;0.60;0.60;;;14.10;99.90;;;;;;5021368;28;20203;-67
2022/09/29 08:49:21;;;;;;;0.57;0.57;;;14.20;99.90;;;;;;5018812;28;20206;-67
2022/09/29 08:51:53;;;;;;;0.50;0.50;;;14.40;99.90;;;;;;5020518;28;20205;-67
2022/09/29 08:54:25;;;;;;;0.50;0.50;;;14.50;99.90;;;;;;5032316;28;20712;-67
2022/09/29 08:56:52;;;;;;;0.73;0.70;;;14.70;99.90;;;;;;5014391;28;20201;-67
2022/09/29 08:59:24;;;;;;;0.60;0.60;;;14.80;99.90;;;;;;5032257;28;20216;-67
2022/09/29 09:02:05;;;;;;;0.77;0.77;;;14.90;99.90;;;;;;5023259;28;20233;-65
2022/09/29 09:04:46;;;;;;;0.70;0.70;;;14.80;99.90;;;;;;5019723;28;20598;-66
2022/09/29 09:07:22;;;;;;;0.50;0.50;;;14.80;99.90;;;;;;5013723;28;20197;-67
2022/09/29 09:10:02;;;;;;;0.40;0.40;;;14.80;99.90;;;;;;5021645;28;20655;-66
2022/09/29 09:12:54;;;;;;;0.60;0.60;;;15.00;99.90;;;;;;5008007;28;20196;-67
2022/09/29 09:15:36;;;;;;;0.40;0.40;;;15.10;99.90;;;;;;5017216;28;20232;-65
2022/09/29 09:18:32;;;;;;;0.60;0.60;;;15.40;99.90;;;;;;5022312;28;20563;-66
2022/09/29 09:21:07;;;;;;;0.67;0.60;;;15.80;99.90;;;;;;5024022;28;20208;-66
2022/09/29 09:23:45;;;;;;;0.60;0.60;;;16.00;99.90;;;;;;5019220;28;20570;-66
2022/09/29 09:26:13;;;;;;;0.77;0.70;;;16.10;99.90;;;;;;5025684;28;20227;-67
2022/09/29 09:28:43;;;;;;;0.57;0.57;;;16.20;99.90;;;;;;5022488;28;20660;-66
2022/09/29 09:31:18;;;;;;;0.57;0.57;;;16.10;99.90;;;;;;5026165;28;20761;-67
2022/09/29 09:33:50;;;;;;;0.50;0.50;;;15.90;99.90;;;;;;5020945;28;20197;-66
2022/09/29 09:36:23;;;;;;;0.53;0.50;;;15.70;99.90;;;;;;5021165;28;20233;-67
2022/09/29 09:38:57;;;;;;;0.50;0.50;;;15.70;99.90;;;;;;5020457;28;20201;-65
2022/09/29 09:41:25;;;;;;;0.83;0.83;;;15.80;99.90;;;;;;5023680;28;20210;-66
2022/09/29 09:43:57;;;;;;;0.50;0.50;;;15.90;99.90;;;;;;5020065;28;20659;-66
2022/09/29 09:46:31;;;;;;;0.60;0.60;;;16.40;99.90;;;;;;5014526;28;20283;-65
2022/09/29 09:49:03;;;;;;;0.60;0.60;;;16.80;99.90;;;;;;5016107;28;20201;-65
2022/09/29 09:51:43;;;;;;;0.50;0.50;;;16.90;99.90;;;;;;5016376;28;20260;-65
2022/09/29 09:54:14;;;;;;;0.47;0.47;;;17.00;99.90;;;;;;5020818;28;20555;-66
2022/09/29 09:56:55;;;;;;;0.60;0.60;;;16.80;99.90;;;;;;5014188;28;20233;-66
2022/09/29 09:59:34;;;;;;;0.60;0.60;;;16.50;99.90;;;;;;5020701;28;20311;-66
2022/09/29 10:02:02;;;;;;;0.60;0.60;;;16.30;99.90;;;;;;5008915;28;20201;-65
2022/09/29 10:04:32;;;;;;;0.57;0.57;;;16.20;99.90;;;;;;5019222;28;20235;-66
2022/09/29 10:06:58;;;;;;;0.50;0.50;;;16.20;99.90;;;;;;5020845;28;20367;-65
2022/09/29 10:09:25;;;;;;;0.50;0.50;;;16.20;99.90;;;;;;5032731;28;20200;-65
2022/09/29 10:11:52;;;;;;;0.70;0.70;;;16.20;99.90;;;;;;5021115;28;20198;-66
2022/09/29 10:14:24;;;;;;;0.60;0.60;;;16.20;99.90;;;;;;5009121;28;20695;-65
2022/09/29 10:16:56;;;;;;;0.60;0.60;;;16.10;99.90;;;;;;4999565;28;20225;-66
2022/09/29 10:19:57;;;;;;;0.43;0.43;;;16.30;99.90;;;;;;5004612;28;20207;-67
2022/09/29 10:22:26;;;;;;;0.77;0.77;;;16.10;99.90;;;;;;5019749;28;20196;-65
2022/09/29 10:24:55;;;;;;;0.70;0.70;;;16.10;99.90;;;;;;5014618;28;20697;-66
2022/09/29 10:27:25;;;;;;;0.60;0.60;;;16.00;99.90;;;;;;5014293;28;20200;-66
2022/09/29 10:29:53;;;;;;;0.60;0.60;;;15.90;99.90;;;;;;5006494;28;20213;-66
2022/09/29 10:32:25;;;;;;;0.60;0.60;;;15.90;99.90;;;;;;5023315;28;20232;-67
2022/09/29 10:35:02;;;;;;;0.60;0.60;;;15.90;99.90;;;;;;5011916;28;20232;-67
2022/09/29 10:37:34;;;;;;;0.60;0.60;;;15.90;99.90;;;;;;5007055;28;20219;-66
2022/09/29 10:40:04;;;;;;;0.40;0.40;;;15.90;99.90;;;;;;5003385;28;20210;-67
2022/09/29 10:42:34;;;;;;;0.40;0.40;;;16.00;99.90;;;;;;5012923;28;20671;-67
2022/09/29 10:45:12;;;;;;;0.30;0.30;;;16.00;99.90;;;;;;5018575;28;20255;-66
2022/09/29 10:47:39;;;;;;;0.60;0.60;;;16.00;99.90;;;;;;5020202;28;20206;-67
2022/09/29 10:50:15;;;;;;;0.40;0.40;;;15.80;99.90;;;;;;5028679;28;20210;-67
2022/09/29 10:52:44;;;;;;;0.40;0.40;;;15.90;99.90;;;;;;5034095;28;20196;-66
2022/09/29 10:55:17;;;;;;;0.60;0.60;;;16.00;99.90;;;;;;5032846;28;20220;-67
2022/09/29 10:57:46;;;;;;;0.60;0.60;;;16.00;99.90;;;;;;5037080;28;20212;-66
2022/09/29 11:00:26;;;;;;;0.57;0.57;;;16.00;99.90;;;;;;5048193;22;20228;-62
2022/09/29 11:02:55;;;;;;;0.93;0.70;;;16.00;99.90;;;;;;5060475;28;20203;-63
2022/09/29 11:05:23;;;;;;;1.30;0.80;;;15.90;99.90;;;;;;5068599;28;20227;-63
2022/09/29 11:07:52;;;;;;;0.70;0.70;;;16.00;99.90;;;;;;5068888;28;20282;-62
2022/09/29 11:10:28;;;;;;;0.60;0.53;;;16.00;99.90;;;;;;5071294;28;20221;-62
2022/09/29 11:12:59;;;;;;;0.40;0.40;;;16.10;99.90;;;;;;5068851;28;20298;-62
2022/09/29 11:15:29;;;;;;;0.70;0.70;;;16.10;99.90;;;;;;5062905;28;20203;-62
2022/09/29 11:17:56;;;;;;;0.50;0.50;;;16.10;99.90;;;;;;5059735;28;20199;-62
2022/09/29 11:20:31;;;;;;;0.70;0.70;;;16.00;99.90;;;;;;5056936;28;20225;-63
2022/09/29 11:23:26;;;;;;;0.47;0.47;;;16.00;99.90;;;;;;5066305;28;20199;-63
2022/09/29 11:26:13;;;;;;;1.07;0.80;;;16.00;99.90;;;;;;5051122;28;20193;-63
2022/09/29 11:28:55;;;;;;;1.17;0.60;;;16.00;99.90;;;;;;5055476;28;20297;-62
2022/09/29 11:31:39;;;;;;;0.60;0.60;;;16.20;99.90;;;;;;5063697;28;20227;-62
2022/09/29 11:34:33;;;;;;;0.60;0.60;;;16.20;99.90;;;;;;5067386;28;20678;-62
2022/09/29 11:37:14;;;;;;;0.67;0.67;;;16.20;99.90;;;;;;5067245;28;20208;-61
2022/09/29 11:39:46;;;;;;;0.60;0.60;;;16.30;99.90;;;;;;5054216;28;20717;-62
2022/09/29 11:42:40;;;;;;;0.77;0.70;;;16.30;99.90;;;;;;5069140;28;20254;-62
2022/09/29 11:45:14;;;;;;;0.70;0.70;;;16.40;99.90;;;;;;5053340;28;20210;-62
2022/09/29 11:48:08;;;;;;;0.60;0.60;;;16.40;99.90;;;;;;5068423;28;20191;-62
2022/09/29 11:50:46;;;;;;;0.60;0.60;;;16.50;99.90;;;;;;5058612;28;20243;-62
2022/09/29 11:53:39;;;;;;;0.80;0.80;;;16.50;99.90;;;;;;5074698;28;20199;-62
2022/09/29 11:56:30;;;;;;;0.43;0.43;;;16.60;99.90;;;;;;5059860;28;20224;-62
2022/09/29 11:59:11;;;;;;;0.83;0.83;;;16.60;99.90;;;;;;5065398;28;20294;-62
2022/09/29 12:01:52;;;;;;;0.50;0.50;;;16.40;99.90;;;;;;5061952;28;20211;-62
2022/09/29 12:04:33;;;;;;;0.57;0.57;;;16.20;99.90;;;;;;5071451;28;20216;-62
2022/09/29 12:07:11;;;;;;;0.40;0.40;;;16.30;99.90;;;;;;5063144;28;20202;-61
2022/09/29 12:10:02;;;;;;;1.13;0.50;;;16.40;99.90;;;;;;5071758;28;20250;-61
2022/09/29 12:12:35;;;;;;;0.60;0.60;;;16.60;99.90;;;;;;5054323;28;20199;-62
2022/09/29 12:15:24;;;;;;;0.60;0.60;;;16.50;99.90;;;;;;5065257;28;20290;-62
2022/09/29 12:17:54;;;;;;;0.67;0.67;;;16.50;99.90;;;;;;5070213;28;20219;-60
2022/09/29 12:20:27;;;;;;;0.50;0.50;;;16.50;99.90;;;;;;5065710;28;20253;-62
2022/09/29 12:22:57;;;;;;;0.67;0.67;;;16.70;99.90;;;;;;5070234;28;20257;-62
2022/09/29 12:25:28;;;;;;;0.47;0.47;;;16.70;99.90;;;;;;5064899;28;20206;-62
2022/09/29 12:28:00;;;;;;;0.50;0.50;;;16.60;99.90;;;;;;5074962;28;20201;-62
2022/09/29 12:30:29;;;;;;;0.50;0.50;;;16.50;99.90;;;;;;5066626;28;20219;-61
2022/09/29 12:33:00;;;;;;;0.60;0.60;;;16.50;99.90;;;;;;5075365;28;20218;-62
2022/09/29 12:35:34;;;;;;;0.70;0.70;;;16.50;99.90;;;;;;5061624;28;20672;-62
2022/09/29 12:38:13;;;;;;;0.50;0.50;;;16.50;99.90;;;;;;5062713;28;20566;-63
2022/09/29 12:40:46;;;;;;;0.80;0.60;;;16.50;99.90;;;;;;5069850;28;20219;-63
2022/09/29 12:43:17;;;;;;;0.50;0.50;;;16.70;99.90;;;;;;5066157;28;20303;-62
2022/09/29 12:45:50;;;;;;;0.80;0.80;;;16.70;99.90;;;;;;5069986;28;20290;-62
2022/09/29 12:48:34;;;;;;;0.60;0.60;;;16.80;99.90;;;;;;5072383;28;20214;-62
2022/09/29 12:51:09;;;;;;;0.50;0.50;;;16.70;99.90;;;;;;5068774;28;20227;-62
2022/09/29 12:53:40;;;;;;;0.53;0.53;;;16.70;99.90;;;;;;5059398;28;20205;-63
2022/09/29 12:56:13;;;;;;;0.60;0.60;;;16.70;99.90;;;;;;5069450;28;20688;-61
2022/09/29 12:58:45;;;;;;;0.40;0.40;;;16.70;99.90;;;;;;5067308;28;20249;-62
2022/09/29 13:01:22;;;;;;;0.50;0.50;;;16.60;99.90;;;;;;5069560;28;20235;-63
2022/09/29 13:04:26;;;;;;;0.50;0.50;;;16.50;99.90;;;;;;5064412;28;20206;-62
2022/09/29 13:07:39;;;;;;;0.40;0.40;;;16.50;99.90;;;;;;5064621;28;20294;-62
2022/09/29 13:10:35;;;;;;;0.47;0.47;;;16.50;99.90;;;;;;5030562;28;20227;-62
2022/09/29 13:13:18;;;;;;;0.43;0.43;;;16.50;99.90;;;;;;5067710;28;20230;-62
2022/09/29 13:15:55;;;;;;;0.50;0.50;;;16.50;99.90;;;;;;5063977;28;20800;-61
2022/09/29 13:18:44;;;;;;;0.53;0.53;;;16.40;99.90;;;;;;5073778;28;20201;-62